Dour, Belgium
Current Conditions -  °F | °C
As of 5:33 PM on Tuesday 21 Oct 2014 (Local Time) from EBCV Reporting Station
Few Clouds Few Clouds  
Wind Chill: 32°   Ceiling: Unl
Heat Index: 43°   Visibility: 1.5mi
Dew Point: 39°   Wind: 31mph
Humidity: 87%   Direction: 300°WNW
Pressure: 29.77"   Gusts: 55mph
Location:  50.4°N, 3.78°E
Report Text: EBCV 211533Z AUTO 30027G48KT 2500 FEW037/// 06/04 Q1008 YLO
Loading
Personal Weather Stations






























Interactive Weather Map
Tropical Storm Tracking
New forecast layout! Learn more

10-Day Weather Forecast

Advertisements
Track Severe Weather on mobile